Caledon, Canada
Current Conditions -  °F | °C
As of 6:00 PM on Tuesday 25 Nov 2014 (Local Time) from CYYZ Reporting Station
Overcast Overcast  
Wind Chill: 24°   Ceiling: 4500
Heat Index: 34°   Visibility: 15mi
Dew Point: 25°   Wind: 14mph
Humidity: 70%   Direction: 250°WSW
Pressure: 30.04"   Gusts: 21mph
Location:  43.87°N, 80°W
Report Text: CYYZ 252300Z 25012G18KT 15SM SCT025 OVC045 01/M04 A3004 RMK SC4SC4 SLP180
Loading
Personal Weather Stations






























Interactive Weather Map New forecast layout! Learn more

10-Day Weather Forecast

Advertisements
Track Severe Weather on mobile